首页
METAR-TAF:

METAR-TAF

机场 :

La Crosse, 威斯康辛州, 美国

纬度: 43-52-46N, 经度: 091-15-24W, 海拔: 199米

当前天气观测

该预报发布于20分钟前的20:53 UTC
风速13节,风向西北
温度 -6°C
湿度 68%
气压 1011 hPa
能見度: 9.7公里
阴天层高于2100英尺

METAR: KLSE 142053Z 32013KT 6SM HZ OVC021 M06/M11 A2986 RMK AO2 SNB11E31 SLP128 P0000 60000 T10611106 53010

时间: 15:13 (21:13 UTC)

预报

该预报发布于37分钟前的20:36 UTC
预报有效从14日的 21点(UTC)到 15日的 18点(UTC)
风速11节,风向西北
能見度: 9.7公里
阴天层高于2000英尺
小阵雪
从 14日的 2300点(UTC)
风速11节,风向西北
能見度: 10公里
多云层高于3500英尺
从 15日的 0400点(UTC)
风速6节,风向西北
能見度: 10公里
散云层高于6000英尺

TAF: KLSE 142036Z 1421/1518 31011KT 6SM -SHSN OVC020 FM142300 31011KT P6SM BKN035 FM150400 31006KT P6SM SCT060

超过4000个机场的气象观测和天气预报(METAR&TAF报告)。

可查询的气象台以黄色和红色小点在地图上表示。

将鼠标移到小点上方,可查看气象台名称。

然后点击查看天气观测和预报。

如需切换地图:点击带黑十字的绿色按钮放大地图;点击带横线的绿色按钮缩小地图;或者点击绿色箭头查看邻近地区的地图。


METAR-TAF: